Bucks Bar, California
Current Conditions -  °F | °C
As of 6:15 AM on Thursday 29 Jan 2015 (Local Time) from KPVF Reporting Station
Clear Clear  
Wind Chill: 50°   Ceiling: Unl
Heat Index: 50°   Visibility: 10mi
Dew Point: 30°   Wind: 9mph
Humidity: 47%   Direction: 80°E
Pressure: 30.15"   Gusts: NA
Location:  38.7308°N, 120.774°W
Report Text: KPVF 291415Z AUTO 08008KT 10SM CLR 10/M01 A3015 RMK AO1
Loading
Personal Weather Stations






























Interactive Weather Map New forecast layout! Learn more

10-Day Weather Forecast

Advertisements
Track Severe Weather on mobile